首页
METAR-TAF:

METAR-TAF

机场 :

Pinedale, 怀俄明州, 美国

纬度: 42-47-43N, 经度: 109-48-25W, 海拔: 2160米

当前天气观测

该预报发布于17分钟前的06:15 UTC
风速5节,风向西
温度 14°C
湿度 47%
气压 1029 hPa
能見度: 16.1公里
天空无云

METAR: KPNA 250615Z AUTO 28005KT 10SM CLR 14/03 A3040 RMK AO2

时间: 00:32 (06:32 UTC)

预报

该预报发布于1小时和1分钟前的05:31 UTC
预报有效从25日的 06点(UTC)到 26日的 06点(UTC)
风速7节,风向北转西北
能見度: 10公里
散云层高于15000英尺
从 25日的 1800点(UTC)
风速10节,风向西转西北
能見度: 10公里
多云层高于10000英尺
附近有阵雨
几率 30%
从 25日的 23点(UTC)到 26日的 03点(UTC)
风速15节,风向西北,有时为25节阵风
散云层高于8000英尺, 积雨云.
多云层高于10000英尺
雷暴, 小雨,

TAF: KPNA 250531Z 2506/2606 34007KT P6SM SCT150 FM251800 30010KT P6SM VCSH BKN100 PROB30 2523/2603 32015G25KT -TSRA SCT080CB BKN100

超过4000个机场的气象观测和天气预报(METAR&TAF报告)。

可查询的气象台以黄色和红色小点在地图上表示。

将鼠标移到小点上方,可查看气象台名称。

然后点击查看天气观测和预报。

如需切换地图:点击带黑十字的绿色按钮放大地图;点击带横线的绿色按钮缩小地图;或者点击绿色箭头查看邻近地区的地图。


METAR-TAF: